createdAt,value
2022-07-26T00:00:19.087Z,82.91
2022-07-26T00:01:19.148Z,82.55
2022-07-26T00:02:19.161Z,83.35
2022-07-26T00:03:19.078Z,83.01
2022-07-26T00:04:19.058Z,83.35
2022-07-26T00:05:19.062Z,83.75
2022-07-26T00:06:19.251Z,83.81
2022-07-26T00:07:19.201Z,83.65
2022-07-26T00:08:19.017Z,83.75
2022-07-26T00:09:18.995Z,83.71
2022-07-26T00:10:18.994Z,84.31
2022-07-26T00:11:19.325Z,84.95
2022-07-26T00:12:18.962Z,84.55
2022-07-26T00:13:18.967Z,83.95
2022-07-26T00:14:18.936Z,83.65
2022-07-26T00:15:18.926Z,84.59
2022-07-26T00:16:18.970Z,85.15
2022-07-26T00:17:18.945Z,85.49
2022-07-26T00:18:18.893Z,85.75
2022-07-26T00:19:18.882Z,85.99
2022-07-26T00:20:18.872Z,85.49
2022-07-26T00:21:18.872Z,84.95
2022-07-26T00:22:18.954Z,85.15
2022-07-26T00:23:18.857Z,84.85
2022-07-26T00:24:18.825Z,85.05
2022-07-26T00:25:18.823Z,85.55
2022-07-26T00:26:18.904Z,84.15
2022-07-26T00:27:18.798Z,83.45
2022-07-26T00:28:18.869Z,83.75
2022-07-26T00:29:18.774Z,84.39
2022-07-26T00:30:18.768Z,85.25
2022-07-26T00:31:18.858Z,85.15
2022-07-26T00:32:18.741Z,85.49
2022-07-26T00:33:18.742Z,85.55
2022-07-26T00:34:18.723Z,85.65
2022-07-26T00:35:18.710Z,84.45
2022-07-26T00:36:18.705Z,84.49
2022-07-26T00:37:20.608Z,84.75
2022-07-26T00:38:18.694Z,83.99
2022-07-26T00:39:18.678Z,84.15
2022-07-26T00:40:18.685Z,84.55
2022-07-26T00:41:19.511Z,85.19
2022-07-26T00:42:18.629Z,85.49
2022-07-26T00:43:18.638Z,85.39
2022-07-26T00:44:18.604Z,84.79
2022-07-26T00:45:18.648Z,84.79
2022-07-26T00:46:18.658Z,84.79
2022-07-26T00:47:18.576Z,85.25
2022-07-26T00:48:18.571Z,85.85
2022-07-26T00:49:18.665Z,85.35
2022-07-26T00:50:18.539Z,85.45
2022-07-26T00:51:18.528Z,85.69
2022-07-26T00:52:18.515Z,84.85
2022-07-26T00:53:18.535Z,85.35
2022-07-26T00:54:18.498Z,85.29
2022-07-26T00:55:18.480Z,85.19
2022-07-26T00:56:18.474Z,84.55
2022-07-26T00:57:18.461Z,84.05
2022-07-26T00:58:18.857Z,84.45
2022-07-26T00:59:18.437Z,84.55
2022-07-26T01:00:18.434Z,83.99
2022-07-26T01:01:18.477Z,83.89
2022-07-26T01:02:18.750Z,83.89
2022-07-26T01:03:18.422Z,83.89
2022-07-26T01:04:18.383Z,83.89
2022-07-26T01:05:18.372Z,83.99
2022-07-26T01:06:18.360Z,84.09
2022-07-26T01:07:18.350Z,84.49
2022-07-26T01:08:18.358Z,85.49
2022-07-26T01:09:18.342Z,85.19
2022-07-26T01:10:18.312Z,85.39
2022-07-26T01:11:18.303Z,84.59
2022-07-26T01:12:18.303Z,84.33
2022-07-26T01:13:18.294Z,84.83
2022-07-26T01:14:18.270Z,84.49
2022-07-26T01:15:18.258Z,84.63
2022-07-26T01:16:18.337Z,84.63
2022-07-26T01:17:18.989Z,84.63
2022-07-26T01:18:18.244Z,84.93
2022-07-26T01:19:18.228Z,85.79
2022-07-26T01:20:18.209Z,84.59
2022-07-26T01:21:18.190Z,84.59
2022-07-26T01:22:18.180Z,85.49
2022-07-26T01:23:18.169Z,84.59
2022-07-26T01:24:18.170Z,85.59
2022-07-26T01:25:18.146Z,85.69
2022-07-26T01:26:18.134Z,85.79
2022-07-26T01:27:18.120Z,85.19
2022-07-26T01:28:20.106Z,85.43
2022-07-26T01:29:18.101Z,85.39
2022-07-26T01:30:18.092Z,84.79
2022-07-26T01:31:18.124Z,85.19
2022-07-26T01:32:18.321Z,85.09
2022-07-26T01:33:18.060Z,85.09
2022-07-26T01:34:18.045Z,84.79
2022-07-26T01:35:18.033Z,84.79
2022-07-26T01:36:18.034Z,85.29
2022-07-26T01:37:18.009Z,85.29
2022-07-26T01:38:17.994Z,85.19
2022-07-26T01:39:18.018Z,84.79
2022-07-26T01:40:17.976Z,84.79
2022-07-26T01:41:17.984Z,85.39
2022-07-26T01:42:18.952Z,84.69
2022-07-26T01:43:17.944Z,85.15
2022-07-26T01:44:17.934Z,85.39
2022-07-26T01:45:18.183Z,85.49
2022-07-26T01:46:17.987Z,85.79
2022-07-26T01:47:17.901Z,85.59
2022-07-26T01:48:17.889Z,85.69
2022-07-26T01:49:18.611Z,85.79
2022-07-26T01:50:17.875Z,85.65
2022-07-26T01:51:17.866Z,85.79
2022-07-26T01:52:17.842Z,85.69
2022-07-26T01:53:17.842Z,85.59
2022-07-26T01:54:22.562Z,85.19
2022-07-26T01:55:18.823Z,84.89
2022-07-26T01:56:17.795Z,85.29
2022-07-26T01:57:17.781Z,85.09
2022-07-26T01:58:17.773Z,85.05
2022-07-26T01:59:18.608Z,84.85
2022-07-26T02:00:27.120Z,84.79
2022-07-26T02:01:38.037Z,85.29
2022-07-26T02:02:18.912Z,85.19
2022-07-26T02:03:17.783Z,84.39
2022-07-26T02:04:17.705Z,84.59
2022-07-26T02:05:17.727Z,84.49
2022-07-26T02:06:17.687Z,84.59
2022-07-26T02:07:17.694Z,84.89
2022-07-26T02:08:17.973Z,85.39
2022-07-26T02:09:17.673Z,85.29
2022-07-26T02:10:17.662Z,85.09
2022-07-26T02:11:17.669Z,85.29
2022-07-26T02:12:17.629Z,85.39
2022-07-26T02:13:17.612Z,85.09
2022-07-26T02:14:25.634Z,85.39
2022-07-26T02:15:18.607Z,85.59
2022-07-26T02:16:17.703Z,85.69
2022-07-26T02:17:17.570Z,86.19
2022-07-26T02:18:17.558Z,86.99
2022-07-26T02:19:17.729Z,87.19
2022-07-26T02:20:17.550Z,87.69
2022-07-26T02:21:17.526Z,87.79
2022-07-26T02:22:17.510Z,88.39
2022-07-26T02:23:17.654Z,88.43
2022-07-26T02:24:17.490Z,88.43
2022-07-26T02:25:18.534Z,88.83
2022-07-26T02:26:17.469Z,88.73
2022-07-26T02:27:17.495Z,89.53
2022-07-26T02:28:17.449Z,89.14
2022-07-26T02:29:17.439Z,89.14
2022-07-26T02:30:17.424Z,89.07
2022-07-26T02:31:17.509Z,89.48
2022-07-26T02:32:17.399Z,89.48
2022-07-26T02:33:17.393Z,89.07
2022-07-26T02:34:17.382Z,89.07
2022-07-26T02:35:17.373Z,89.18
2022-07-26T02:36:17.381Z,89.48
2022-07-26T02:37:17.345Z,89.48
2022-07-26T02:38:17.335Z,89.87
2022-07-26T02:39:17.347Z,90.42
2022-07-26T02:40:19.507Z,90.22
2022-07-26T02:41:17.324Z,90.32
2022-07-26T02:42:17.297Z,90.32
2022-07-26T02:43:17.283Z,89.72
2022-07-26T02:44:17.272Z,90.42
2022-07-26T02:45:17.349Z,90.42
2022-07-26T02:46:17.279Z,90.52
2022-07-26T02:47:17.250Z,90.12
2022-07-26T02:48:17.226Z,90.22
2022-07-26T02:49:17.251Z,90.12
2022-07-26T02:50:17.210Z,90.12
2022-07-26T02:51:17.607Z,90.52
2022-07-26T02:52:17.186Z,90.42
2022-07-26T02:53:17.175Z,89.52
2022-07-26T02:54:17.172Z,89.16
2022-07-26T02:55:17.156Z,89.12
2022-07-26T02:56:17.156Z,89.36
2022-07-26T02:57:18.086Z,89.32
2022-07-26T02:58:17.115Z,89.56
2022-07-26T02:59:17.104Z,89.56
2022-07-26T03:00:17.097Z,89.86
2022-07-26T03:01:17.169Z,89.76
2022-07-26T03:02:17.109Z,89.96
2022-07-26T03:03:17.063Z,90.06
2022-07-26T03:04:17.049Z,90.16
2022-07-26T03:05:17.042Z,90.06
2022-07-26T03:06:17.046Z,90.26
2022-07-26T03:07:17.021Z,90.16
2022-07-26T03:08:17.154Z,89.96
2022-07-26T03:09:16.999Z,89.96
2022-07-26T03:10:16.984Z,90.16
2022-07-26T03:11:16.978Z,90.36
2022-07-26T03:12:17.099Z,90.56
2022-07-26T03:13:16.952Z,90.36
2022-07-26T03:14:17.588Z,90.91
2022-07-26T03:15:16.931Z,90.70
2022-07-26T03:16:21.847Z,90.56
2022-07-26T03:17:17.924Z,90.96
2022-07-26T03:18:16.900Z,90.86
2022-07-26T03:19:16.976Z,90.96
2022-07-26T03:20:16.883Z,91.01
2022-07-26T03:21:16.872Z,90.86
2022-07-26T03:22:16.932Z,91.27
2022-07-26T03:23:16.868Z,91.66
2022-07-26T03:24:17.561Z,91.77
2022-07-26T03:25:16.846Z,91.66
2022-07-26T03:26:16.810Z,91.77
2022-07-26T03:27:16.808Z,90.81
2022-07-26T03:28:19.482Z,91.91
2022-07-26T03:29:16.973Z,91.97
2022-07-26T03:30:16.765Z,92.01
2022-07-26T03:31:17.824Z,91.97
2022-07-26T03:32:16.745Z,91.91
2022-07-26T03:33:16.726Z,91.91
2022-07-26T03:34:16.720Z,91.91
2022-07-26T03:35:16.709Z,91.61
2022-07-26T03:36:16.713Z,91.51
2022-07-26T03:37:16.684Z,92.01
2022-07-26T03:38:16.676Z,92.01
2022-07-26T03:39:16.663Z,92.21
2022-07-26T03:40:16.931Z,91.81
2022-07-26T03:41:16.677Z,90.81
2022-07-26T03:42:16.635Z,90.81
2022-07-26T03:43:18.984Z,91.01
2022-07-26T03:44:16.705Z,91.01
2022-07-26T03:45:16.595Z,91.01
2022-07-26T03:46:16.700Z,90.45
2022-07-26T03:47:16.588Z,89.61
2022-07-26T03:48:16.566Z,88.40
2022-07-26T03:49:17.420Z,88.84
2022-07-26T03:50:16.541Z,88.20
2022-07-26T03:51:16.527Z,88.84
2022-07-26T03:52:16.541Z,88.75
2022-07-26T03:53:16.506Z,88.30
2022-07-26T03:54:16.496Z,87.90
2022-07-26T03:55:16.484Z,87.70
2022-07-26T03:56:16.473Z,87.74
2022-07-26T03:57:16.634Z,87.84
2022-07-26T03:58:16.452Z,87.20
2022-07-26T03:59:16.441Z,86.94
2022-07-26T04:00:16.433Z,86.50
2022-07-26T04:01:16.504Z,86.50
2022-07-26T04:02:16.493Z,86.44
2022-07-26T04:03:17.107Z,86.04
2022-07-26T04:04:16.387Z,85.99
2022-07-26T04:05:16.370Z,85.19
2022-07-26T04:06:17.363Z,84.79
2022-07-26T04:07:16.423Z,85.39
2022-07-26T04:08:16.341Z,84.69
2022-07-26T04:09:16.325Z,84.69
2022-07-26T04:10:16.319Z,84.79
2022-07-26T04:11:16.306Z,85.60
2022-07-26T04:12:16.314Z,85.19
2022-07-26T04:13:16.282Z,83.59
2022-07-26T04:14:16.506Z,83.89
2022-07-26T04:15:16.264Z,83.39
2022-07-26T04:16:16.267Z,82.59
2022-07-26T04:17:16.300Z,82.39
2022-07-26T04:18:16.228Z,82.39
2022-07-26T04:19:16.217Z,81.99
2022-07-26T04:20:16.257Z,81.59
2022-07-26T04:21:16.200Z,81.18
2022-07-26T04:22:16.267Z,81.18
2022-07-26T04:23:16.171Z,80.88
2022-07-26T04:24:16.160Z,80.79
2022-07-26T04:25:16.158Z,80.79
2022-07-26T04:26:16.141Z,80.68
2022-07-26T04:27:16.151Z,79.98
2022-07-26T04:28:16.114Z,79.68
2022-07-26T04:29:16.106Z,79.78
2022-07-26T04:30:16.093Z,79.64
2022-07-26T04:31:16.170Z,79.48
2022-07-26T04:32:16.093Z,79.18
2022-07-26T04:33:16.070Z,79.48
2022-07-26T04:34:16.051Z,79.68
2022-07-26T04:35:16.044Z,79.98
2022-07-26T04:36:16.035Z,79.04
2022-07-26T04:37:16.162Z,78.94
2022-07-26T04:38:16.009Z,79.28
2022-07-26T04:39:16.577Z,79.08
2022-07-26T04:40:15.986Z,78.58
2022-07-26T04:41:15.967Z,79.08
2022-07-26T04:42:16.009Z,78.84
2022-07-26T04:43:16.269Z,78.84
2022-07-26T04:44:16.015Z,78.50
2022-07-26T04:45:15.928Z,78.41
2022-07-26T04:46:16.067Z,78.10
2022-07-26T04:47:15.923Z,78.54
2022-07-26T04:48:16.622Z,77.91
2022-07-26T04:49:15.944Z,78.41
2022-07-26T04:50:16.626Z,78.41
2022-07-26T04:51:15.863Z,77.50
2022-07-26T04:52:15.880Z,77.20
2022-07-26T04:53:15.860Z,77.40
2022-07-26T04:54:15.831Z,76.80
2022-07-26T04:55:15.830Z,76.90
2022-07-26T04:56:15.838Z,76.80
2022-07-26T04:57:15.819Z,77.00
2022-07-26T04:58:15.791Z,77.26
2022-07-26T04:59:19.839Z,76.87
2022-07-26T05:00:24.628Z,76.26
2022-07-26T05:01:16.830Z,75.76
2022-07-26T05:02:15.880Z,74.66
2022-07-26T05:03:15.844Z,75.46
2022-07-26T05:04:15.724Z,75.06
2022-07-26T05:05:15.713Z,75.06
2022-07-26T05:06:15.701Z,74.66
2022-07-26T05:07:15.692Z,74.56
2022-07-26T05:08:15.710Z,74.76
2022-07-26T05:09:15.665Z,74.96
2022-07-26T05:10:15.656Z,74.96
2022-07-26T05:11:15.791Z,75.06
2022-07-26T05:12:15.673Z,75.23
2022-07-26T05:13:15.621Z,75.46
2022-07-26T05:14:15.611Z,76.06
2022-07-26T05:15:15.605Z,76.03
2022-07-26T05:16:15.590Z,76.37
2022-07-26T05:17:17.829Z,76.26
2022-07-26T05:18:15.587Z,76.56
2022-07-26T05:19:15.558Z,76.87
2022-07-26T05:20:15.548Z,76.76
2022-07-26T05:21:15.537Z,77.17
2022-07-26T05:22:15.608Z,76.76
2022-07-26T05:23:15.533Z,77.76
2022-07-26T05:24:15.791Z,76.97
2022-07-26T05:25:15.509Z,77.47
2022-07-26T05:26:15.484Z,77.26
2022-07-26T05:27:15.487Z,77.03
2022-07-26T05:28:15.482Z,76.73
2022-07-26T05:29:15.493Z,77.03
2022-07-26T05:30:15.443Z,77.47
2022-07-26T05:31:15.502Z,77.17
2022-07-26T05:32:15.415Z,77.76
2022-07-26T05:33:16.484Z,77.47
2022-07-26T05:34:15.395Z,77.67
2022-07-26T05:35:15.388Z,76.76
2022-07-26T05:36:15.374Z,77.06
2022-07-26T05:37:15.360Z,76.83
2022-07-26T05:38:15.366Z,76.06
2022-07-26T05:39:16.210Z,76.26
2022-07-26T05:40:15.334Z,76.26
2022-07-26T05:41:15.365Z,76.76
2022-07-26T05:42:15.303Z,77.17
2022-07-26T05:43:15.312Z,76.37
2022-07-26T05:44:15.297Z,77.06
2022-07-26T05:45:15.371Z,76.17
2022-07-26T05:46:15.313Z,76.17
2022-07-26T05:47:15.251Z,76.97
2022-07-26T05:48:15.252Z,75.76
2022-07-26T05:49:15.308Z,75.76
2022-07-26T05:50:15.220Z,75.73
2022-07-26T05:51:15.208Z,75.43
2022-07-26T05:52:15.196Z,75.73
2022-07-26T05:53:15.198Z,76.33
2022-07-26T05:54:15.178Z,75.43
2022-07-26T05:55:15.164Z,75.43
2022-07-26T05:56:15.416Z,75.13
2022-07-26T05:57:15.144Z,74.53
2022-07-26T05:58:15.148Z,74.83
2022-07-26T05:59:15.120Z,75.23
2022-07-26T06:00:15.200Z,75.02
2022-07-26T06:01:15.108Z,74.49
2022-07-26T06:02:15.104Z,74.69
2022-07-26T06:03:15.097Z,73.86
2022-07-26T06:04:15.149Z,73.79
2022-07-26T06:05:15.057Z,73.36
2022-07-26T06:06:15.045Z,72.76
2022-07-26T06:07:15.040Z,72.76
2022-07-26T06:08:15.041Z,72.82
2022-07-26T06:09:15.016Z,72.42
2022-07-26T06:10:15.003Z,72.39
2022-07-26T06:11:14.995Z,70.99
2022-07-26T06:12:14.977Z,70.89
2022-07-26T06:13:15.655Z,71.09
2022-07-26T06:14:15.307Z,71.19
2022-07-26T06:15:16.019Z,71.06
2022-07-26T06:16:14.932Z,70.86
2022-07-26T06:17:14.951Z,71.15
2022-07-26T06:18:14.932Z,69.32
2022-07-26T06:19:14.907Z,68.90
2022-07-26T06:20:14.892Z,69.09
2022-07-26T06:21:14.872Z,68.99
2022-07-26T06:22:14.868Z,68.60
2022-07-26T06:23:14.873Z,68.70
2022-07-26T06:24:14.847Z,67.60
2022-07-26T06:25:14.834Z,67.90
2022-07-26T06:26:14.821Z,68.37
2022-07-26T06:27:14.810Z,68.49
2022-07-26T06:28:14.844Z,67.96
2022-07-26T06:29:14.789Z,68.49
2022-07-26T06:30:14.820Z,68.70
2022-07-26T06:31:14.837Z,68.40
2022-07-26T06:32:14.893Z,68.07
2022-07-26T06:33:14.760Z,68.26
2022-07-26T06:34:14.756Z,67.83
2022-07-26T06:35:14.722Z,68.33
2022-07-26T06:36:15.041Z,67.63
2022-07-26T06:37:14.704Z,66.91
2022-07-26T06:38:14.707Z,66.38
2022-07-26T06:39:14.678Z,66.50
2022-07-26T06:40:14.674Z,66.47
2022-07-26T06:41:14.658Z,64.95
2022-07-26T06:42:14.646Z,64.62
2022-07-26T06:43:14.670Z,65.39
2022-07-26T06:44:14.624Z,64.69
2022-07-26T06:45:14.615Z,62.40
2022-07-26T06:46:14.765Z,62.80
2022-07-26T06:47:14.952Z,63.07
2022-07-26T06:48:14.709Z,62.34
2022-07-26T06:49:15.480Z,61.75
2022-07-26T06:50:14.561Z,61.25
2022-07-26T06:51:14.678Z,60.83
2022-07-26T06:52:14.573Z,59.80
2022-07-26T06:53:14.587Z,59.88
2022-07-26T06:54:14.514Z,59.45
2022-07-26T06:55:14.505Z,59.05
2022-07-26T06:56:14.493Z,59.08
2022-07-26T06:57:14.480Z,59.78
2022-07-26T06:58:14.495Z,57.57
2022-07-26T06:59:14.466Z,57.74
2022-07-26T07:00:14.453Z,56.42
2022-07-26T07:01:57.032Z,55.90
2022-07-26T07:02:15.467Z,55.82
2022-07-26T07:03:14.416Z,53.30
2022-07-26T07:04:14.424Z,52.68
2022-07-26T07:05:14.486Z,52.78
2022-07-26T07:06:14.385Z,52.19
2022-07-26T07:07:14.376Z,53.33
2022-07-26T07:08:14.658Z,55.13
2022-07-26T07:09:14.371Z,55.26
2022-07-26T07:10:14.434Z,53.81
2022-07-26T07:11:14.376Z,53.15
2022-07-26T07:12:14.341Z,52.87
2022-07-26T07:13:14.310Z,53.50
2022-07-26T07:14:14.299Z,53.69
2022-07-26T07:15:14.287Z,54.06
2022-07-26T07:16:14.362Z,53.27
2022-07-26T07:17:19.848Z,52.09
2022-07-26T07:18:15.270Z,51.64
2022-07-26T07:19:14.363Z,51.07
2022-07-26T07:20:14.233Z,51.82
2022-07-26T07:21:14.222Z,53.25
2022-07-26T07:22:14.209Z,53.87
2022-07-26T07:23:14.247Z,54.59
2022-07-26T07:24:14.192Z,54.17
2022-07-26T07:25:14.780Z,55.18
2022-07-26T07:26:14.186Z,55.01
2022-07-26T07:27:14.186Z,55.30
2022-07-26T07:28:14.149Z,53.99
2022-07-26T07:29:14.157Z,52.24
2022-07-26T07:30:14.122Z,50.12
2022-07-26T07:31:14.145Z,47.27
2022-07-26T07:32:18.297Z,46.53
2022-07-26T07:33:22.077Z,45.29
2022-07-26T07:34:15.079Z,44.24
2022-07-26T07:35:14.072Z,43.27
2022-07-26T07:36:14.055Z,42.25
2022-07-26T07:37:14.056Z,41.97
2022-07-26T07:38:14.418Z,44.12
2022-07-26T07:39:17.474Z,45.97
2022-07-26T07:40:14.020Z,46.41
2022-07-26T07:41:14.018Z,47.73
2022-07-26T07:42:14.011Z,46.84
2022-07-26T07:43:14.013Z,46.60
2022-07-26T07:44:14.431Z,47.02
2022-07-26T07:45:13.963Z,47.26
2022-07-26T07:46:14.078Z,47.41
2022-07-26T07:47:13.983Z,45.43
2022-07-26T07:48:13.950Z,44.07
2022-07-26T07:49:14.113Z,43.77
2022-07-26T07:50:13.910Z,43.77
2022-07-26T07:51:13.910Z,42.46
2022-07-26T07:52:13.892Z,40.74
2022-07-26T07:53:13.894Z,38.71
2022-07-26T07:54:13.868Z,38.42
2022-07-26T07:55:39.963Z,39.51
2022-07-26T07:56:14.847Z,38.87
2022-07-26T07:57:13.878Z,38.26
2022-07-26T07:58:13.862Z,37.54
2022-07-26T07:59:14.934Z,36.44
2022-07-26T08:00:27.156Z,36.90
2022-07-26T08:01:14.834Z,39.75
2022-07-26T08:02:13.784Z,40.74
2022-07-26T08:03:13.770Z,40.45
2022-07-26T08:04:13.824Z,43.99
2022-07-26T08:05:15.187Z,42.29
2022-07-26T08:06:13.741Z,41.05
2022-07-26T08:07:13.728Z,39.59
2022-07-26T08:08:13.728Z,39.92
2022-07-26T08:09:13.940Z,40.84
2022-07-26T08:10:13.915Z,40.56
2022-07-26T08:11:13.686Z,38.63
2022-07-26T08:12:13.674Z,38.20
2022-07-26T08:13:13.665Z,38.28
2022-07-26T08:14:13.837Z,39.06
2022-07-26T08:15:13.671Z,39.72
2022-07-26T08:16:13.836Z,37.02
2022-07-26T08:17:13.622Z,37.79
2022-07-26T08:18:14.138Z,38.63
2022-07-26T08:19:14.432Z,39.22
2022-07-26T08:20:15.828Z,39.72
2022-07-26T08:21:13.587Z,40.55
2022-07-26T08:22:13.587Z,39.61
2022-07-26T08:23:13.560Z,37.62
2022-07-26T08:24:13.553Z,37.00
2022-07-26T08:25:13.555Z,37.66
2022-07-26T08:26:13.527Z,37.48
2022-07-26T08:27:14.241Z,37.93
2022-07-26T08:28:37.630Z,38.35
2022-07-26T08:29:14.740Z,39.59
2022-07-26T08:30:13.500Z,40.03
2022-07-26T08:31:13.688Z,41.08
2022-07-26T08:32:13.467Z,43.71
2022-07-26T08:33:13.470Z,45.84
2022-07-26T08:34:13.444Z,46.99
2022-07-26T08:35:19.880Z,48.04
2022-07-26T08:36:14.424Z,50.29
2022-07-26T08:37:18.005Z,51.13
2022-07-26T08:38:13.404Z,51.65
2022-07-26T08:39:13.409Z,52.24
2022-07-26T08:40:13.393Z,52.34
2022-07-26T08:41:13.368Z,52.14
2022-07-26T08:42:13.467Z,53.03
2022-07-26T08:43:13.354Z,51.87
2022-07-26T08:44:13.343Z,53.06
2022-07-26T08:45:13.352Z,52.54
2022-07-26T08:46:14.209Z,50.31
2022-07-26T08:47:13.321Z,49.99
2022-07-26T08:48:18.158Z,50.21
2022-07-26T08:49:14.685Z,49.91
2022-07-26T08:50:13.285Z,50.16
2022-07-26T08:51:13.261Z,50.78
2022-07-26T08:52:13.251Z,51.67
2022-07-26T08:53:13.395Z,52.59
2022-07-26T08:54:13.232Z,52.39
2022-07-26T08:55:13.231Z,52.49
2022-07-26T08:56:13.212Z,52.78
2022-07-26T08:57:13.196Z,51.99
2022-07-26T08:58:14.503Z,49.45
2022-07-26T08:59:19.088Z,48.22
2022-07-26T09:00:14.240Z,48.02
2022-07-26T09:01:13.578Z,48.24
2022-07-26T09:02:13.141Z,48.04
2022-07-26T09:03:13.893Z,48.96
2022-07-26T09:04:13.763Z,47.19
2022-07-26T09:05:13.176Z,46.89
2022-07-26T09:06:13.103Z,47.41
2022-07-26T09:07:13.087Z,47.65
2022-07-26T09:08:13.077Z,49.05
2022-07-26T09:09:13.068Z,49.15
2022-07-26T09:10:13.116Z,48.83
2022-07-26T09:11:13.045Z,48.10
2022-07-26T09:12:13.035Z,46.67
2022-07-26T09:13:13.026Z,45.96
2022-07-26T09:14:13.010Z,43.90
2022-07-26T09:15:13.028Z,43.53
2022-07-26T09:16:13.207Z,44.76
2022-07-26T09:17:12.987Z,46.28
2022-07-26T09:18:12.975Z,46.44
2022-07-26T09:19:12.968Z,47.28
2022-07-26T09:20:13.132Z,48.41
2022-07-26T09:21:12.941Z,49.25
2022-07-26T09:22:12.926Z,50.24
2022-07-26T09:23:12.931Z,49.96
2022-07-26T09:24:12.915Z,50.56
2022-07-26T09:25:12.923Z,49.67
2022-07-26T09:26:12.892Z,44.98
2022-07-26T09:27:12.874Z,41.09
2022-07-26T09:28:12.863Z,38.51
2022-07-26T09:29:13.599Z,36.18
2022-07-26T09:30:12.838Z,35.05
2022-07-26T09:31:12.980Z,36.02
2022-07-26T09:32:12.820Z,37.37
2022-07-26T09:33:12.904Z,38.81
2022-07-26T09:34:13.311Z,40.74
2022-07-26T09:35:30.076Z,42.66
2022-07-26T09:36:13.771Z,43.51
2022-07-26T09:37:12.834Z,44.05
2022-07-26T09:38:12.753Z,45.09
2022-07-26T09:39:12.762Z,46.84
2022-07-26T09:40:12.736Z,46.29
2022-07-26T09:41:12.733Z,47.50
2022-07-26T09:42:28.446Z,47.72
2022-07-26T09:43:13.708Z,49.69
2022-07-26T09:44:13.227Z,49.69
2022-07-26T09:45:12.682Z,48.80
2022-07-26T09:46:12.713Z,49.52
2022-07-26T09:47:12.666Z,49.82
2022-07-26T09:48:12.785Z,49.94
2022-07-26T09:49:12.753Z,50.34
2022-07-26T09:50:12.833Z,50.63
2022-07-26T09:51:12.619Z,50.21
2022-07-26T09:52:12.650Z,48.74
2022-07-26T09:53:12.632Z,45.86
2022-07-26T09:54:13.157Z,42.72
2022-07-26T09:55:12.593Z,38.92
2022-07-26T09:56:12.579Z,37.15
2022-07-26T09:57:13.128Z,36.96
2022-07-26T09:58:12.554Z,35.89
2022-07-26T09:59:12.556Z,32.96
2022-07-26T10:00:12.522Z,32.01
2022-07-26T10:01:12.636Z,30.00
2022-07-26T10:02:12.507Z,29.43
2022-07-26T10:03:12.569Z,30.58
2022-07-26T10:04:12.886Z,31.56
2022-07-26T10:05:12.478Z,30.24
2022-07-26T10:06:12.479Z,29.53
2022-07-26T10:07:12.468Z,29.49
2022-07-26T10:08:12.445Z,29.10
2022-07-26T10:09:12.440Z,30.15
2022-07-26T10:10:12.421Z,31.05
2022-07-26T10:11:12.429Z,31.13
2022-07-26T10:12:12.424Z,29.96
2022-07-26T10:13:12.395Z,29.93
2022-07-26T10:14:12.777Z,29.56
2022-07-26T10:15:12.378Z,31.28
2022-07-26T10:16:12.403Z,33.88
2022-07-26T10:17:13.370Z,34.82
2022-07-26T10:18:16.738Z,36.14
2022-07-26T10:19:13.350Z,36.98
2022-07-26T10:20:17.358Z,37.93
2022-07-26T10:21:13.316Z,39.45
2022-07-26T10:22:12.324Z,39.78
2022-07-26T10:23:12.295Z,41.19
2022-07-26T10:24:13.172Z,42.00
2022-07-26T10:25:12.274Z,42.24
2022-07-26T10:26:12.268Z,43.43
2022-07-26T10:27:12.275Z,44.19
2022-07-26T10:28:12.290Z,44.29
2022-07-26T10:29:12.236Z,44.90
2022-07-26T10:30:12.270Z,45.71
2022-07-26T10:31:12.258Z,45.61
2022-07-26T10:32:12.218Z,45.83
2022-07-26T10:33:12.194Z,46.15
2022-07-26T10:34:12.741Z,46.62
2022-07-26T10:35:12.412Z,46.50
2022-07-26T10:36:12.159Z,45.94
2022-07-26T10:37:12.170Z,42.35
2022-07-26T10:38:12.135Z,41.84
2022-07-26T10:39:12.331Z,41.86
2022-07-26T10:40:12.150Z,41.56
2022-07-26T10:41:12.109Z,41.61
2022-07-26T10:42:12.113Z,42.61
2022-07-26T10:43:39.052Z,43.73
2022-07-26T10:44:13.370Z,44.32
2022-07-26T10:45:12.071Z,44.73
2022-07-26T10:46:12.143Z,45.15
2022-07-26T10:47:12.086Z,45.56
2022-07-26T10:48:12.102Z,45.49
2022-07-26T10:49:12.101Z,45.90
2022-07-26T10:50:12.010Z,46.40
2022-07-26T10:51:12.000Z,46.52
2022-07-26T10:52:12.102Z,46.17
2022-07-26T10:53:11.992Z,46.09
2022-07-26T10:54:12.780Z,47.20
2022-07-26T10:55:11.960Z,47.03
2022-07-26T10:56:13.754Z,47.25
2022-07-26T10:57:11.978Z,48.55
2022-07-26T10:58:11.939Z,49.47
2022-07-26T10:59:11.920Z,49.96
2022-07-26T11:00:11.904Z,49.96
2022-07-26T11:01:11.924Z,47.97
2022-07-26T11:02:11.889Z,43.93
2022-07-26T11:03:11.957Z,40.74
2022-07-26T11:04:12.255Z,38.09
2022-07-26T11:05:11.855Z,35.94
2022-07-26T11:06:11.845Z,34.19
2022-07-26T11:07:11.908Z,32.47
2022-07-26T11:08:11.841Z,30.76
2022-07-26T11:09:12.764Z,29.90
2022-07-26T11:10:11.803Z,31.07
2022-07-26T11:11:11.792Z,32.28
2022-07-26T11:12:11.975Z,32.92
2022-07-26T11:13:11.820Z,34.84
2022-07-26T11:14:12.223Z,35.77
2022-07-26T11:15:11.829Z,36.58
2022-07-26T11:16:11.817Z,37.19
2022-07-26T11:17:11.733Z,37.62
2022-07-26T11:18:11.720Z,39.22
2022-07-26T11:19:11.729Z,39.72
2022-07-26T11:20:11.706Z,40.16
2022-07-26T11:21:11.694Z,40.53
2022-07-26T11:22:11.681Z,37.85
2022-07-26T11:23:11.715Z,35.02
2022-07-26T11:24:12.015Z,34.85
2022-07-26T11:25:11.651Z,32.96
2022-07-26T11:26:12.298Z,32.42
2022-07-26T11:27:11.630Z,31.15
2022-07-26T11:28:11.739Z,31.05
2022-07-26T11:29:12.766Z,31.05
2022-07-26T11:30:12.596Z,33.18
2022-07-26T11:31:11.626Z,33.91
2022-07-26T11:32:17.740Z,34.90
2022-07-26T11:33:12.587Z,34.70
2022-07-26T11:34:11.993Z,34.19
2022-07-26T11:35:11.554Z,34.48
2022-07-26T11:36:11.543Z,35.00
2022-07-26T11:37:11.546Z,35.55
2022-07-26T11:38:12.551Z,36.96
2022-07-26T11:39:11.532Z,37.67
2022-07-26T11:40:11.508Z,37.52
2022-07-26T11:41:11.496Z,38.94
2022-07-26T11:42:11.505Z,39.54
2022-07-26T11:43:11.499Z,40.55
2022-07-26T11:44:11.783Z,41.35
2022-07-26T11:45:11.782Z,40.95
2022-07-26T11:46:11.502Z,41.86
2022-07-26T11:47:11.439Z,41.78
2022-07-26T11:48:11.424Z,42.39
2022-07-26T11:49:12.467Z,42.49
2022-07-26T11:50:16.894Z,42.61
2022-07-26T11:51:12.406Z,44.01
2022-07-26T11:52:11.383Z,45.07
2022-07-26T11:53:11.404Z,45.12
2022-07-26T11:54:11.752Z,45.73
2022-07-26T11:55:11.360Z,46.34
2022-07-26T11:56:11.342Z,46.56
2022-07-26T11:57:11.331Z,47.47
2022-07-26T11:58:11.321Z,48.71
2022-07-26T11:59:11.311Z,48.21
2022-07-26T12:00:11.312Z,49.32
2022-07-26T12:01:11.287Z,49.32
2022-07-26T12:02:11.279Z,49.94
2022-07-26T12:03:11.283Z,50.34
2022-07-26T12:04:11.690Z,52.34
2022-07-26T12:05:11.496Z,53.85
2022-07-26T12:06:11.676Z,54.96
2022-07-26T12:07:11.230Z,55.85
2022-07-26T12:08:11.277Z,57.46
2022-07-26T12:09:11.214Z,57.69
2022-07-26T12:10:11.196Z,58.02
2022-07-26T12:11:11.183Z,58.91
2022-07-26T12:12:11.173Z,58.25
2022-07-26T12:13:11.173Z,58.22
2022-07-26T12:14:15.069Z,57.62
2022-07-26T12:15:12.136Z,58.22
2022-07-26T12:16:11.188Z,57.03
2022-07-26T12:17:11.220Z,56.34
2022-07-26T12:18:11.108Z,56.93
2022-07-26T12:19:11.374Z,56.63
2022-07-26T12:20:11.097Z,56.01
2022-07-26T12:21:11.078Z,56.73
2022-07-26T12:22:12.645Z,56.60
2022-07-26T12:23:11.126Z,55.41
2022-07-26T12:24:11.681Z,53.13
2022-07-26T12:25:11.026Z,53.33
2022-07-26T12:26:11.015Z,53.96
2022-07-26T12:27:11.011Z,52.96
2022-07-26T12:28:11.000Z,55.36
2022-07-26T12:29:10.983Z,56.66
2022-07-26T12:30:10.988Z,58.57
2022-07-26T12:31:11.017Z,59.79
2022-07-26T12:32:12.665Z,61.61
2022-07-26T12:33:10.939Z,65.02
2022-07-26T12:34:11.399Z,67.00
2022-07-26T12:35:10.932Z,71.55
2022-07-26T12:36:10.906Z,69.79
2022-07-26T12:37:10.896Z,72.22
2022-07-26T12:38:10.893Z,72.45
2022-07-26T12:39:10.895Z,73.05
2022-07-26T12:40:11.363Z,73.08
2022-07-26T12:41:13.825Z,73.38
2022-07-26T12:42:10.847Z,73.11
2022-07-26T12:43:10.831Z,72.92
2022-07-26T12:44:11.154Z,74.35
2022-07-26T12:45:10.825Z,74.85
2022-07-26T12:46:10.866Z,74.35
2022-07-26T12:47:10.787Z,74.38
2022-07-26T12:48:10.782Z,74.72
2022-07-26T12:49:10.880Z,76.18
2022-07-26T12:50:10.759Z,76.78
2022-07-26T12:51:10.758Z,76.72
2022-07-26T12:52:10.735Z,75.62